createdAt,value
2019-03-22T00:01:42.303Z,7.80
2019-03-22T00:04:08.694Z,7.60
2019-03-22T00:06:35.041Z,7.60
2019-03-22T00:09:01.390Z,7.60
2019-03-22T00:11:30.196Z,7.50
2019-03-22T00:13:56.903Z,7.20
2019-03-22T00:16:23.266Z,7.20
2019-03-22T00:18:49.700Z,7.10
2019-03-22T00:21:16.102Z,7.00
2019-03-22T00:23:42.738Z,6.90
2019-03-22T00:26:09.151Z,6.80
2019-03-22T00:28:35.814Z,6.80
2019-03-22T00:31:02.158Z,6.80
2019-03-22T00:33:28.933Z,6.80
2019-03-22T00:35:55.248Z,6.80
2019-03-22T00:38:21.976Z,6.70
2019-03-22T00:40:49.618Z,6.70
2019-03-22T00:43:15.979Z,6.80
2019-03-22T00:45:42.319Z,6.70
2019-03-22T00:48:08.665Z,6.70
2019-03-22T00:50:35.360Z,6.70
2019-03-22T00:53:02.110Z,6.70
2019-03-22T00:55:28.500Z,6.70
2019-03-22T00:57:55.163Z,6.70
2019-03-22T01:00:21.616Z,6.70
2019-03-22T01:02:47.965Z,6.60
2019-03-22T01:05:15.217Z,6.70
2019-03-22T01:07:41.556Z,6.80
2019-03-22T01:10:11.708Z,6.80
2019-03-22T01:12:38.399Z,6.80
2019-03-22T01:15:11.906Z,6.70
2019-03-22T01:17:38.247Z,6.70
2019-03-22T01:20:07.435Z,6.70
2019-03-22T01:22:34.148Z,6.80
2019-03-22T01:25:00.780Z,6.80
2019-03-22T01:27:27.468Z,6.80
2019-03-22T01:29:57.895Z,6.80
2019-03-22T01:32:25.268Z,6.80
2019-03-22T01:34:51.942Z,6.80
2019-03-22T01:37:18.342Z,6.70
2019-03-22T01:39:44.671Z,6.60
2019-03-22T01:42:11.010Z,6.50
2019-03-22T01:44:37.340Z,6.50
2019-03-22T01:47:04.021Z,6.50
2019-03-22T01:49:30.772Z,6.50
2019-03-22T01:51:57.089Z,6.50
2019-03-22T01:54:24.421Z,6.50
2019-03-22T01:56:50.724Z,6.50
2019-03-22T01:59:17.427Z,6.60
2019-03-22T02:01:43.781Z,6.70
2019-03-22T02:04:10.132Z,6.70
2019-03-22T02:06:36.689Z,6.60
2019-03-22T02:09:05.948Z,6.50
2019-03-22T02:11:32.307Z,6.50
2019-03-22T02:13:59.083Z,6.50
2019-03-22T02:16:25.837Z,6.50
2019-03-22T02:18:52.130Z,6.40
2019-03-22T02:21:19.626Z,6.40
2019-03-22T02:23:46.376Z,6.30
2019-03-22T02:26:13.114Z,6.30
2019-03-22T02:28:40.611Z,6.20
2019-03-22T02:31:07.126Z,6.20
2019-03-22T02:33:33.460Z,6.20
2019-03-22T02:35:59.807Z,6.10
2019-03-22T02:38:26.486Z,6.00
2019-03-22T02:40:53.134Z,6.00
2019-03-22T02:43:20.472Z,6.10
2019-03-22T02:45:46.827Z,6.00
2019-03-22T02:48:13.194Z,6.00
2019-03-22T02:50:39.589Z,6.00
2019-03-22T02:53:05.986Z,6.00
2019-03-22T02:55:32.318Z,6.10
2019-03-22T02:57:58.712Z,6.10
2019-03-22T03:00:25.057Z,6.00
2019-03-22T03:02:51.371Z,6.10
2019-03-22T03:05:17.713Z,6.10
2019-03-22T03:07:44.034Z,6.00
2019-03-22T03:10:14.894Z,6.10
2019-03-22T03:12:41.904Z,6.20
2019-03-22T03:15:15.464Z,6.10
2019-03-22T03:17:41.794Z,6.10
2019-03-22T03:20:13.593Z,6.00
2019-03-22T03:22:40.047Z,5.90
2019-03-22T03:25:08.524Z,5.90
2019-03-22T03:27:35.555Z,5.90
2019-03-22T03:30:15.080Z,5.90
2019-03-22T03:32:41.465Z,5.90
2019-03-22T03:35:08.128Z,5.90
2019-03-22T03:37:34.557Z,5.80
2019-03-22T03:40:02.871Z,5.80
2019-03-22T03:42:29.188Z,5.90
2019-03-22T03:44:55.562Z,5.90
2019-03-22T03:47:22.268Z,5.90
2019-03-22T03:49:48.701Z,5.90
2019-03-22T03:52:15.140Z,5.90
2019-03-22T03:54:41.519Z,5.80
2019-03-22T03:57:07.844Z,5.80
2019-03-22T03:59:34.175Z,5.90
2019-03-22T04:02:00.539Z,5.90
2019-03-22T04:04:27.111Z,5.80
2019-03-22T04:06:53.519Z,5.80
2019-03-22T04:09:20.194Z,5.80
2019-03-22T04:11:46.591Z,5.70
2019-03-22T04:14:12.929Z,5.70
2019-03-22T04:16:39.603Z,5.70
2019-03-22T04:19:06.216Z,5.70
2019-03-22T04:21:32.995Z,5.70
2019-03-22T04:23:59.391Z,5.60
2019-03-22T04:26:25.764Z,5.50
2019-03-22T04:29:06.127Z,5.50
2019-03-22T04:31:20.487Z,5.50
2019-03-22T04:33:47.275Z,5.50
2019-03-22T04:36:13.613Z,5.50
2019-03-22T04:38:39.956Z,5.50
2019-03-22T04:41:06.285Z,5.40
2019-03-22T04:43:33.008Z,5.40
2019-03-22T04:45:59.702Z,5.30
2019-03-22T04:48:32.228Z,5.20
2019-03-22T04:51:00.146Z,5.20
2019-03-22T04:53:33.674Z,5.30
2019-03-22T04:56:01.639Z,5.30
2019-03-22T04:58:28.566Z,5.40
2019-03-22T05:00:57.714Z,5.40
2019-03-22T05:03:24.666Z,5.40
2019-03-22T05:05:54.782Z,5.50
2019-03-22T05:08:23.991Z,5.50
2019-03-22T05:10:52.121Z,5.60
2019-03-22T05:13:19.974Z,5.50
2019-03-22T05:15:46.928Z,5.40
2019-03-22T05:18:13.774Z,5.50
2019-03-22T05:20:42.549Z,5.40
2019-03-22T05:23:09.940Z,5.30
2019-03-22T05:25:37.321Z,5.20
2019-03-22T05:28:06.115Z,5.20
2019-03-22T05:31:03.502Z,5.00
2019-03-22T05:33:32.140Z,5.00
2019-03-22T05:35:58.898Z,5.10
2019-03-22T05:38:25.221Z,5.20
2019-03-22T05:40:51.961Z,5.30
2019-03-22T05:43:18.301Z,5.40
2019-03-22T05:45:46.704Z,5.50
2019-03-22T05:48:13.031Z,5.40
2019-03-22T05:50:39.839Z,5.60
2019-03-22T05:53:06.671Z,5.90
2019-03-22T05:55:33.430Z,6.00
2019-03-22T05:58:00.362Z,6.20
2019-03-22T06:00:27.125Z,6.30
2019-03-22T06:02:53.852Z,6.40
2019-03-22T06:05:20.600Z,6.50
2019-03-22T06:07:46.953Z,6.60
2019-03-22T06:10:13.391Z,6.70
2019-03-22T06:12:39.975Z,6.90
2019-03-22T06:15:07.139Z,6.90
2019-03-22T06:17:33.761Z,7.10
2019-03-22T06:20:00.492Z,7.10
2019-03-22T06:22:27.244Z,7.20
2019-03-22T06:24:53.612Z,7.30
2019-03-22T06:27:20.242Z,7.40
2019-03-22T06:29:54.017Z,7.50
2019-03-22T06:32:15.279Z,7.60
2019-03-22T06:34:42.018Z,7.80
2019-03-22T06:37:08.322Z,7.90
2019-03-22T06:39:34.682Z,8.00
2019-03-22T06:42:03.027Z,8.10
2019-03-22T06:44:29.571Z,8.20
2019-03-22T06:46:55.916Z,8.40
2019-03-22T06:49:22.332Z,8.60
2019-03-22T06:51:48.652Z,8.80
2019-03-22T06:54:14.989Z,8.70
2019-03-22T06:56:41.382Z,8.60
2019-03-22T06:59:07.691Z,8.70
2019-03-22T07:01:34.031Z,8.90
2019-03-22T07:04:00.365Z,9.00
2019-03-22T07:06:27.084Z,9.40
2019-03-22T07:08:53.389Z,9.70
2019-03-22T07:11:19.769Z,9.80
2019-03-22T07:13:46.093Z,9.80
2019-03-22T07:16:12.492Z,9.90
2019-03-22T07:18:38.916Z,9.90
2019-03-22T07:21:05.272Z,9.70
2019-03-22T07:23:31.993Z,10.00
2019-03-22T07:25:58.352Z,10.20
2019-03-22T07:28:24.721Z,10.30
2019-03-22T07:30:51.059Z,10.50
2019-03-22T07:33:17.425Z,10.40
2019-03-22T07:35:43.772Z,10.50
2019-03-22T07:38:10.110Z,10.70
2019-03-22T07:40:36.724Z,11.10
2019-03-22T07:43:03.464Z,11.30
2019-03-22T07:45:30.122Z,11.50
2019-03-22T07:47:56.760Z,11.80
2019-03-22T07:50:23.157Z,11.90
2019-03-22T07:52:49.467Z,12.00
2019-03-22T07:55:15.790Z,12.00
2019-03-22T07:57:42.470Z,11.90
2019-03-22T08:00:12.079Z,12.10
2019-03-22T08:02:38.537Z,12.30
2019-03-22T08:05:05.788Z,12.20
2019-03-22T08:07:32.512Z,12.20
2019-03-22T08:10:05.648Z,12.40
2019-03-22T08:12:32.114Z,12.50
2019-03-22T08:14:58.448Z,12.80
2019-03-22T08:17:24.818Z,12.90
2019-03-22T08:19:51.552Z,13.10
2019-03-22T08:22:17.881Z,12.90
2019-03-22T08:24:44.238Z,12.70
2019-03-22T08:27:10.610Z,12.80
2019-03-22T08:29:37.026Z,13.00
2019-03-22T08:32:03.403Z,13.20
2019-03-22T08:34:29.954Z,13.40
2019-03-22T08:36:56.328Z,13.30
2019-03-22T08:39:23.753Z,12.70
2019-03-22T08:41:50.275Z,12.80
2019-03-22T08:44:17.604Z,12.90
2019-03-22T08:46:45.101Z,13.20
2019-03-22T08:49:11.740Z,13.40
2019-03-22T08:51:38.609Z,13.10
2019-03-22T08:54:05.002Z,12.90
2019-03-22T08:56:31.443Z,13.20
2019-03-22T08:58:58.072Z,13.20
2019-03-22T09:01:24.409Z,13.60
2019-03-22T09:03:50.800Z,13.50
2019-03-22T09:06:17.205Z,13.40
2019-03-22T09:08:43.725Z,13.20
2019-03-22T09:11:10.451Z,13.60
2019-03-22T09:13:36.824Z,13.90
2019-03-22T09:16:03.173Z,14.10
2019-03-22T09:18:29.544Z,14.40
2019-03-22T09:20:56.224Z,14.60
2019-03-22T09:23:22.669Z,14.80
2019-03-22T09:25:49.565Z,14.90
2019-03-22T09:28:16.348Z,14.60
2019-03-22T09:30:42.907Z,14.70
2019-03-22T09:33:09.298Z,14.80
2019-03-22T09:35:35.647Z,14.80
2019-03-22T09:38:12.302Z,15.00
2019-03-22T09:40:30.217Z,14.90
2019-03-22T09:42:56.636Z,15.00
2019-03-22T09:45:23.024Z,15.00
2019-03-22T09:47:49.410Z,15.00
2019-03-22T09:50:15.905Z,15.10
2019-03-22T09:52:42.260Z,15.30
2019-03-22T09:55:13.921Z,15.30
2019-03-22T09:57:38.100Z,15.40
2019-03-22T10:00:09.819Z,15.50
2019-03-22T10:02:36.189Z,15.30
2019-03-22T10:05:04.711Z,15.40
2019-03-22T10:07:31.160Z,15.40
2019-03-22T10:09:57.665Z,15.70
2019-03-22T10:12:24.048Z,15.70
2019-03-22T10:14:50.729Z,15.40
2019-03-22T10:17:18.172Z,15.60
2019-03-22T10:19:44.928Z,15.90
2019-03-22T10:22:11.274Z,15.80
2019-03-22T10:24:38.132Z,15.80
2019-03-22T10:27:05.343Z,15.80
2019-03-22T10:29:32.118Z,15.80
2019-03-22T10:31:58.583Z,15.70
2019-03-22T10:34:25.094Z,15.80
2019-03-22T10:36:51.470Z,15.90
2019-03-22T10:39:17.856Z,16.20
2019-03-22T10:41:44.275Z,16.20
2019-03-22T10:44:10.673Z,15.90
2019-03-22T10:46:37.131Z,15.80
2019-03-22T10:49:04.814Z,15.80
2019-03-22T10:51:31.249Z,16.40
2019-03-22T10:53:57.600Z,16.50
2019-03-22T10:56:25.043Z,16.70
2019-03-22T10:58:51.565Z,16.80
2019-03-22T11:01:17.904Z,17.10
2019-03-22T11:03:44.277Z,17.00
2019-03-22T11:06:11.045Z,16.90
2019-03-22T11:08:37.408Z,17.10
2019-03-22T11:11:03.854Z,17.10
2019-03-22T11:13:30.206Z,17.10
2019-03-22T11:15:56.802Z,17.00
2019-03-22T11:18:23.346Z,17.20
2019-03-22T11:20:49.703Z,17.40
2019-03-22T11:23:16.045Z,17.20
2019-03-22T11:25:42.372Z,17.20
2019-03-22T11:28:08.721Z,17.60
2019-03-22T11:30:35.105Z,17.70
2019-03-22T11:33:01.454Z,17.90
2019-03-22T11:35:27.840Z,18.50
2019-03-22T11:37:54.171Z,19.20
2019-03-22T11:40:21.100Z,20.30
2019-03-22T11:42:48.399Z,21.80
2019-03-22T11:45:20.314Z,22.50
2019-03-22T11:47:47.033Z,22.90
2019-03-22T11:50:14.226Z,24.10
2019-03-22T11:52:40.836Z,24.60
2019-03-22T11:55:11.333Z,24.70
2019-03-22T11:57:38.255Z,26.30
2019-03-22T12:00:18.259Z,27.00
2019-03-22T12:02:45.032Z,28.90
2019-03-22T12:05:12.269Z,28.80
2019-03-22T12:07:39.040Z,28.70
2019-03-22T12:10:09.102Z,28.70
2019-03-22T12:12:35.787Z,30.10
2019-03-22T12:15:05.528Z,31.20
2019-03-22T12:17:31.895Z,31.30
2019-03-22T12:19:58.672Z,30.50
2019-03-22T12:22:25.071Z,30.10
2019-03-22T12:24:51.401Z,31.00
2019-03-22T12:27:18.057Z,30.90
2019-03-22T12:29:44.584Z,32.00
2019-03-22T12:32:11.186Z,32.00
2019-03-22T12:34:37.549Z,30.50
2019-03-22T12:37:03.891Z,29.90
2019-03-22T12:39:30.248Z,30.40
2019-03-22T12:41:57.003Z,31.40
2019-03-22T12:44:23.320Z,32.40
2019-03-22T12:46:50.784Z,33.60
2019-03-22T12:49:18.484Z,33.90
2019-03-22T12:51:45.730Z,31.40
2019-03-22T12:54:12.537Z,33.50
2019-03-22T12:56:38.927Z,33.00
2019-03-22T12:59:05.698Z,33.40
2019-03-22T13:01:32.025Z,35.10
2019-03-22T13:03:58.409Z,35.70
2019-03-22T13:06:25.091Z,34.90
2019-03-22T13:08:51.937Z,36.30
2019-03-22T13:11:19.715Z,35.90
2019-03-22T13:13:46.347Z,35.00
2019-03-22T13:16:13.607Z,34.50
2019-03-22T13:18:49.618Z,35.70
2019-03-22T13:21:08.342Z,36.80
2019-03-22T13:23:35.041Z,36.70
2019-03-22T13:26:01.555Z,35.20
2019-03-22T13:28:27.861Z,34.50
2019-03-22T13:30:54.537Z,35.80
2019-03-22T13:33:20.901Z,35.60
2019-03-22T13:35:47.251Z,36.00
2019-03-22T13:38:13.742Z,37.00
2019-03-22T13:40:40.038Z,36.20
2019-03-22T13:43:06.508Z,35.90
2019-03-22T13:45:32.928Z,35.60
2019-03-22T13:47:59.811Z,36.50
2019-03-22T13:50:26.541Z,36.40
2019-03-22T13:52:53.287Z,36.40
2019-03-22T13:55:19.636Z,36.10
2019-03-22T13:57:46.003Z,36.40
2019-03-22T14:00:16.475Z,36.40
2019-03-22T14:02:43.832Z,35.70
2019-03-22T14:05:10.573Z,34.70
2019-03-22T14:07:36.907Z,35.80
2019-03-22T14:10:06.527Z,35.60
2019-03-22T14:12:37.072Z,36.00
2019-03-22T14:15:02.039Z,35.80
2019-03-22T14:17:28.369Z,35.00
2019-03-22T14:19:54.734Z,35.60
2019-03-22T14:22:21.550Z,36.80
2019-03-22T14:24:49.218Z,37.10
2019-03-22T14:27:15.610Z,35.90
2019-03-22T14:29:42.470Z,36.70
2019-03-22T14:32:08.832Z,36.60
2019-03-22T14:34:35.549Z,37.10
2019-03-22T14:37:02.190Z,37.60
2019-03-22T14:39:28.588Z,37.30
2019-03-22T14:41:54.915Z,36.80
2019-03-22T14:44:25.490Z,36.90
2019-03-22T14:46:50.938Z,36.10
2019-03-22T14:49:17.326Z,35.40
2019-03-22T14:51:43.976Z,34.20
2019-03-22T14:54:10.713Z,35.50
2019-03-22T14:56:37.342Z,36.30
2019-03-22T14:59:04.081Z,36.30
2019-03-22T15:01:30.708Z,36.50
2019-03-22T15:03:57.395Z,35.80
2019-03-22T15:06:23.813Z,35.90
2019-03-22T15:08:56.626Z,35.20
2019-03-22T15:11:23.379Z,35.20
2019-03-22T15:13:54.556Z,35.30
2019-03-22T15:16:24.616Z,35.70
2019-03-22T15:18:53.187Z,35.20
2019-03-22T15:21:33.435Z,35.00
2019-03-22T15:24:11.628Z,34.60
2019-03-22T15:26:57.121Z,34.60
2019-03-22T15:29:31.305Z,34.10
2019-03-22T15:32:11.905Z,33.90
2019-03-22T15:34:49.178Z,32.90
2019-03-22T15:37:34.057Z,33.10
2019-03-22T15:40:00.496Z,33.40
2019-03-22T15:42:27.328Z,32.80
2019-03-22T15:44:53.698Z,32.50
2019-03-22T15:47:20.612Z,31.20
2019-03-22T15:49:46.998Z,30.90
2019-03-22T15:52:13.432Z,30.80
2019-03-22T15:54:39.904Z,30.60
2019-03-22T15:57:06.550Z,29.70
2019-03-22T15:59:32.961Z,29.70
2019-03-22T16:01:59.291Z,29.90
2019-03-22T16:04:25.812Z,29.70
2019-03-22T16:06:52.158Z,29.20
2019-03-22T16:09:18.907Z,27.80
2019-03-22T16:11:45.247Z,26.50
2019-03-22T16:14:11.730Z,25.40
2019-03-22T16:16:38.436Z,24.50
2019-03-22T16:19:05.288Z,23.60
2019-03-22T16:21:32.118Z,23.10
2019-03-22T16:23:58.581Z,22.60
2019-03-22T16:26:25.627Z,22.30
2019-03-22T16:28:51.945Z,22.00
2019-03-22T16:31:18.670Z,21.50
2019-03-22T16:33:53.943Z,21.10
2019-03-22T16:36:13.962Z,20.90
2019-03-22T16:38:40.615Z,20.50
2019-03-22T16:41:07.297Z,20.30
2019-03-22T16:43:33.608Z,20.30
2019-03-22T16:46:00.025Z,19.90
2019-03-22T16:48:26.370Z,19.80
2019-03-22T16:50:53.119Z,19.60
2019-03-22T16:53:19.948Z,19.30
2019-03-22T16:55:46.708Z,19.10
2019-03-22T16:58:13.555Z,18.90
2019-03-22T17:00:40.161Z,18.70
2019-03-22T17:03:07.416Z,18.50
2019-03-22T17:05:34.682Z,18.40
2019-03-22T17:08:01.424Z,18.20
2019-03-22T17:10:28.032Z,18.10
2019-03-22T17:12:54.819Z,17.90
2019-03-22T17:15:21.647Z,17.70
2019-03-22T17:17:48.320Z,17.50
2019-03-22T17:20:15.360Z,17.30
2019-03-22T17:22:42.265Z,17.20
2019-03-22T17:25:08.946Z,17.10
2019-03-22T17:27:35.288Z,16.90
2019-03-22T17:30:08.447Z,16.80
2019-03-22T17:32:35.522Z,16.70
2019-03-22T17:35:04.670Z,16.60
2019-03-22T17:37:31.336Z,16.50
2019-03-22T17:39:57.727Z,16.40
2019-03-22T17:42:24.613Z,16.40
2019-03-22T17:44:50.980Z,16.30
2019-03-22T17:47:17.317Z,16.20
2019-03-22T17:49:48.247Z,16.10
2019-03-22T17:52:12.114Z,16.00
2019-03-22T17:54:38.585Z,15.90
2019-03-22T17:57:06.377Z,15.80
2019-03-22T17:59:32.739Z,15.70
2019-03-22T18:01:59.451Z,15.70
2019-03-22T18:04:26.112Z,15.50
2019-03-22T18:06:52.524Z,15.50
2019-03-22T18:09:19.265Z,15.40
2019-03-22T18:11:46.642Z,15.30
2019-03-22T18:14:13.486Z,15.30
2019-03-22T18:16:40.290Z,15.20
2019-03-22T18:19:09.481Z,15.20
2019-03-22T18:21:35.949Z,15.10
2019-03-22T18:24:02.333Z,15.00
2019-03-22T18:26:28.812Z,14.90
2019-03-22T18:28:55.348Z,14.90
2019-03-22T18:31:22.085Z,14.80
2019-03-22T18:33:48.683Z,14.80
2019-03-22T18:36:15.012Z,14.70
2019-03-22T18:38:42.001Z,14.60
2019-03-22T18:41:08.656Z,14.50
2019-03-22T18:43:35.025Z,14.40
2019-03-22T18:46:01.481Z,14.40
2019-03-22T18:48:28.003Z,14.30
2019-03-22T18:50:56.949Z,14.30
2019-03-22T18:53:22.957Z,14.30
2019-03-22T18:55:49.315Z,14.20
2019-03-22T18:58:15.674Z,14.10
2019-03-22T19:00:42.038Z,14.00
2019-03-22T19:03:08.397Z,14.00
2019-03-22T19:05:34.770Z,13.90
2019-03-22T19:08:02.578Z,13.90
2019-03-22T19:10:29.049Z,13.80
2019-03-22T19:12:55.528Z,13.80
2019-03-22T19:15:22.306Z,13.70
2019-03-22T19:17:48.638Z,13.60
2019-03-22T19:20:15.783Z,13.60
2019-03-22T19:22:42.497Z,13.50
2019-03-22T19:25:09.692Z,13.50
2019-03-22T19:27:36.311Z,13.40
2019-03-22T19:30:12.676Z,13.30
2019-03-22T19:32:39.419Z,13.20
2019-03-22T19:35:07.373Z,13.10
2019-03-22T19:37:34.496Z,13.10
2019-03-22T19:40:01.212Z,13.00
2019-03-22T19:42:28.275Z,12.80
2019-03-22T19:44:55.251Z,12.80
2019-03-22T19:47:21.817Z,12.60
2019-03-22T19:49:50.150Z,12.60
2019-03-22T19:52:17.219Z,12.50
2019-03-22T19:54:43.977Z,12.50
2019-03-22T19:57:10.766Z,12.40
2019-03-22T19:59:37.213Z,12.40
2019-03-22T20:02:07.290Z,12.40
2019-03-22T20:04:33.957Z,12.40
2019-03-22T20:07:03.190Z,12.30
2019-03-22T20:09:29.690Z,12.20
2019-03-22T20:11:56.114Z,12.10
2019-03-22T20:14:23.114Z,12.00
2019-03-22T20:16:50.206Z,12.00
2019-03-22T20:19:16.746Z,12.00
2019-03-22T20:21:43.205Z,12.00
2019-03-22T20:24:10.223Z,12.00
2019-03-22T20:26:36.908Z,11.90
2019-03-22T20:29:04.029Z,11.90
2019-03-22T20:31:30.828Z,11.80
2019-03-22T20:33:57.567Z,11.80
2019-03-22T20:36:24.309Z,11.80
2019-03-22T20:38:50.638Z,11.70
2019-03-22T20:41:18.498Z,11.70
2019-03-22T20:43:45.720Z,11.60
2019-03-22T20:46:15.788Z,11.60
2019-03-22T20:48:43.002Z,11.50
2019-03-22T20:51:09.754Z,11.40
2019-03-22T20:53:36.496Z,11.30
2019-03-22T20:56:03.114Z,11.30
2019-03-22T20:58:29.665Z,11.20
2019-03-22T21:00:56.013Z,11.10
2019-03-22T21:03:22.754Z,11.00
2019-03-22T21:05:49.238Z,11.00
2019-03-22T21:08:15.558Z,10.90
2019-03-22T21:10:44.496Z,10.80
2019-03-22T21:13:10.858Z,10.90
2019-03-22T21:15:37.478Z,10.80
2019-03-22T21:18:03.885Z,10.80
2019-03-22T21:20:30.383Z,10.80
2019-03-22T21:22:57.214Z,10.80
2019-03-22T21:25:23.574Z,10.70
2019-03-22T21:27:50.228Z,10.70
2019-03-22T21:30:16.572Z,10.70
2019-03-22T21:32:45.651Z,10.60
2019-03-22T21:35:21.867Z,10.60
2019-03-22T21:37:40.177Z,10.60
2019-03-22T21:40:08.726Z,10.50
2019-03-22T21:42:35.526Z,10.40
2019-03-22T21:45:04.092Z,10.40
2019-03-22T21:47:30.582Z,10.40
2019-03-22T21:49:58.940Z,10.30
2019-03-22T21:52:25.302Z,10.30
2019-03-22T21:54:52.080Z,10.20
2019-03-22T21:57:18.449Z,10.20
2019-03-22T21:59:44.779Z,10.20
2019-03-22T22:02:11.142Z,10.10
2019-03-22T22:04:37.480Z,10.00
2019-03-22T22:07:04.160Z,10.00
2019-03-22T22:09:30.520Z,10.00
2019-03-22T22:11:56.892Z,9.90
2019-03-22T22:14:23.749Z,9.90
2019-03-22T22:16:50.392Z,9.80
2019-03-22T22:19:17.015Z,9.80
2019-03-22T22:21:43.357Z,9.80
2019-03-22T22:24:09.704Z,9.80
2019-03-22T22:26:36.321Z,9.70
2019-03-22T22:29:02.971Z,9.70
2019-03-22T22:31:29.359Z,9.70
2019-03-22T22:33:55.735Z,9.60
2019-03-22T22:36:22.741Z,9.60
2019-03-22T22:38:49.095Z,9.60
2019-03-22T22:41:15.473Z,9.60
2019-03-22T22:43:42.914Z,9.60
2019-03-22T22:46:09.222Z,9.60
2019-03-22T22:48:35.560Z,9.50
2019-03-22T22:51:01.885Z,9.50
2019-03-22T22:53:28.329Z,9.50
2019-03-22T22:55:55.172Z,9.40
2019-03-22T22:58:22.502Z,9.40
2019-03-22T23:00:49.162Z,9.40
2019-03-22T23:03:17.421Z,9.30
2019-03-22T23:05:43.757Z,9.30
2019-03-22T23:08:10.427Z,9.40
2019-03-22T23:10:36.829Z,9.30
2019-03-22T23:13:03.189Z,9.20
2019-03-22T23:15:29.498Z,9.20
2019-03-22T23:17:56.144Z,9.20
2019-03-22T23:20:22.497Z,9.20
2019-03-22T23:22:48.892Z,9.10
2019-03-22T23:25:15.537Z,9.10
2019-03-22T23:27:42.192Z,9.10
2019-03-22T23:30:11.202Z,9.00
2019-03-22T23:32:37.631Z,9.00
2019-03-22T23:35:05.576Z,9.00
2019-03-22T23:37:31.901Z,9.00
2019-03-22T23:39:58.269Z,9.00
2019-03-22T23:42:24.900Z,8.90
2019-03-22T23:44:51.233Z,8.90
2019-03-22T23:47:17.851Z,8.90
2019-03-22T23:49:44.209Z,8.90
2019-03-22T23:52:10.838Z,8.90
2019-03-22T23:54:37.581Z,8.90
2019-03-22T23:57:03.910Z,8.80
2019-03-22T23:59:30.216Z,8.80
